Time;durP1;ratioP1;P1;durP2;ratioP2;P2;SDS_P1;SDS_P2;PMS_P1;PMS_P2;Temp;Humidity;BMP_temperature;BMP_pressure;BME280_temperature;BME280_humidity;BME280_pressure;Samples;Min_cycle;Max_cycle;Signal;HPM_P1;HPM_P2
2023/08/25 00:00:50;;;;;;;14.43;12.02;;;;;;;;;;4892112;29;20521;-83
2023/08/25 00:03:17;;;;;;;16.95;14.60;;;;;;;;;;4889846;29;20048;-83
2023/08/25 00:05:45;;;;;;;13.15;11.75;;;;;;;;;;4878093;29;20053;-83
2023/08/25 00:08:16;;;;;;;13.90;12.40;;;;;;;;;;4872666;29;20068;-84
2023/08/25 00:10:45;;;;;;;14.57;11.65;;;;;;;;;;4875400;29;20064;-83
2023/08/25 00:13:14;;;;;;;16.27;12.27;;;;;;;;;;4881583;29;20053;-84
2023/08/25 00:15:46;;;;;;;14.18;11.68;;;;;;;;;;4881531;29;20040;-84
2023/08/25 00:18:13;;;;;;;14.10;12.80;;;;;;;;;;4866184;29;20065;-85
2023/08/25 00:20:41;;;;;;;16.10;12.18;;;;;;;;;;4891192;29;20607;-83
2023/08/25 00:23:09;;;;;;;18.67;14.50;;;;;;;;;;4897840;29;20064;-83
2023/08/25 00:25:36;;;;;;;18.60;16.75;;;;;;;;;;4879069;29;20052;-84
2023/08/25 00:28:04;;;;;;;16.13;14.43;;;;;;;;;;4877903;29;20068;-83
2023/08/25 00:30:35;;;;;;;13.32;11.98;;;;;;;;;;4875543;29;20049;-83
2023/08/25 00:33:03;;;;;;;14.63;12.65;;;;;;;;;;4875597;29;20053;-84
2023/08/25 00:35:30;;;;;;;20.92;13.10;;;;;;;;;;4873666;29;20053;-83
2023/08/25 00:38:00;;;;;;;14.07;12.00;;;;;;;;;;4885536;29;20420;-84
2023/08/25 00:40:35;;;;;;;28.23;14.10;;;;;;;;;;4876748;29;20071;-84
2023/08/25 00:43:05;;;;;;;17.23;13.38;;;;;;;;;;4880243;29;20508;-84
2023/08/25 00:45:38;;;;;;;14.73;11.65;;;;;;;;;;4875782;29;20059;-84
2023/08/25 00:48:07;;;;;;;33.50;15.45;;;;;;;;;;4889933;29;20055;-84
2023/08/25 00:50:35;;;;;;;15.80;11.95;;;;;;;;;;4875228;29;20521;-84
2023/08/25 00:53:03;;;;;;;13.32;11.93;;;;;;;;;;4879414;29;20048;-84
2023/08/25 00:55:34;;;;;;;14.90;13.32;;;;;;;;;;4893833;29;20528;-84
2023/08/25 00:58:03;;;;;;;12.32;10.95;;;;;;;;;;4877662;29;20048;-84
2023/08/25 01:00:36;;;;;;;14.02;12.10;;;;;;;;;;4879712;29;20053;-84
2023/08/25 01:03:04;;;;;;;16.30;11.77;;;;;;;;;;4864294;29;20044;-84
2023/08/25 01:05:32;;;;;;;17.80;12.02;;;;;;;;;;4897115;29;20366;-84
2023/08/25 01:07:59;;;;;;;14.63;12.85;;;;;;;;;;4863283;29;20071;-84
2023/08/25 01:10:29;;;;;;;13.25;11.95;;;;;;;;;;4864216;29;20061;-84
2023/08/25 01:13:05;;;;;;;13.82;12.43;;;;;;;;;;4864301;29;20059;-84
2023/08/25 01:15:41;;;;;;;13.32;11.45;;;;;;;;;;4888327;29;20497;-83
2023/08/25 01:18:12;;;;;;;14.75;10.98;;;;;;;;;;4876104;29;20045;-83
2023/08/25 01:20:45;;;;;;;13.38;11.80;;;;;;;;;;4876518;29;20052;-84
2023/08/25 01:23:17;;;;;;;13.07;11.57;;;;;;;;;;4872624;29;20059;-84
2023/08/25 01:25:46;;;;;;;11.02;9.88;;;;;;;;;;4884082;29;20060;-83
2023/08/25 01:28:20;;;;;;;12.10;10.90;;;;;;;;;;4873773;29;20045;-84
2023/08/25 01:30:49;;;;;;;13.98;12.32;;;;;;;;;;4871611;29;20048;-84
2023/08/25 01:33:21;;;;;;;15.60;14.00;;;;;;;;;;4862344;29;20057;-84
2023/08/25 01:35:56;;;;;;;13.63;11.73;;;;;;;;;;4879836;29;20057;-84
2023/08/25 01:38:26;;;;;;;12.45;11.15;;;;;;;;;;4891623;29;20048;-83
2023/08/25 01:41:05;;;;;;;15.23;13.85;;;;;;;;;;4873069;29;20049;-84
2023/08/25 01:43:35;;;;;;;12.75;11.43;;;;;;;;;;4892415;29;20075;-84
2023/08/25 01:46:06;;;;;;;14.97;13.50;;;;;;;;;;4870538;29;20402;-84
2023/08/25 01:48:33;;;;;;;12.13;10.07;;;;;;;;;;4890586;29;20313;-84
2023/08/25 01:51:01;;;;;;;14.23;12.90;;;;;;;;;;4879326;29;20044;-84
2023/08/25 01:53:28;;;;;;;14.35;12.90;;;;;;;;;;4897353;29;20036;-83
2023/08/25 01:55:56;;;;;;;13.25;11.82;;;;;;;;;;4878767;29;20496;-84
2023/08/25 01:58:24;;;;;;;14.20;12.90;;;;;;;;;;4893284;29;20420;-83
2023/08/25 02:00:58;;;;;;;14.05;12.75;;;;;;;;;;4879939;29;20048;-83
2023/08/25 02:03:25;;;;;;;14.20;12.63;;;;;;;;;;4881697;29;20052;-83
2023/08/25 02:05:52;;;;;;;12.63;10.32;;;;;;;;;;4893873;29;20056;-83
2023/08/25 02:08:22;;;;;;;15.02;11.27;;;;;;;;;;4879648;29;20703;-84
2023/08/25 02:10:49;;;;;;;11.07;9.75;;;;;;;;;;4864584;29;20061;-83
2023/08/25 02:13:19;;;;;;;18.38;13.60;;;;;;;;;;4868672;29;20513;-83
2023/08/25 02:15:50;;;;;;;14.25;10.80;;;;;;;;;;4898061;29;20061;-83
2023/08/25 02:18:18;;;;;;;15.48;12.52;;;;;;;;;;4881532;29;20044;-83
2023/08/25 02:20:50;;;;;;;19.53;12.40;;;;;;;;;;4883498;29;20053;-84
2023/08/25 02:23:17;;;;;;;15.93;10.35;;;;;;;;;;4879488;29;20057;-83
2023/08/25 02:25:47;;;;;;;15.07;13.43;;;;;;;;;;4869375;29;20069;-83
2023/08/25 02:28:16;;;;;;;16.48;12.15;;;;;;;;;;4898928;29;20429;-84
2023/08/25 02:30:48;;;;;;;14.20;12.70;;;;;;;;;;4881098;29;20049;-83
2023/08/25 02:33:18;;;;;;;14.57;12.45;;;;;;;;;;4881105;29;20052;-83
2023/08/25 02:35:50;;;;;;;17.38;14.98;;;;;;;;;;4883858;29;20063;-83
2023/08/25 02:38:19;;;;;;;13.70;12.32;;;;;;;;;;4895001;29;20056;-83
2023/08/25 02:40:49;;;;;;;20.02;13.25;;;;;;;;;;4881967;29;20064;-83
2023/08/25 02:43:19;;;;;;;11.43;10.05;;;;;;;;;;4869080;29;20583;-84
2023/08/25 02:45:53;;;;;;;13.35;12.15;;;;;;;;;;4884207;29;20040;-83
2023/08/25 02:48:22;;;;;;;13.20;11.90;;;;;;;;;;4880000;29;20053;-83
2023/08/25 02:50:52;;;;;;;12.35;11.07;;;;;;;;;;4866664;29;20409;-83
2023/08/25 02:53:19;;;;;;;14.38;11.95;;;;;;;;;;4883888;29;20647;-83
2023/08/25 02:55:47;;;;;;;19.02;14.38;;;;;;;;;;4891039;29;20041;-83
2023/08/25 02:58:14;;;;;;;18.75;14.45;;;;;;;;;;4883190;29;20056;-83
2023/08/25 03:00:43;;;;;;;19.95;15.10;;;;;;;;;;4890357;29;20056;-83
2023/08/25 03:03:17;;;;;;;17.08;13.95;;;;;;;;;;4901564;29;20063;-83
2023/08/25 03:05:44;;;;;;;26.52;17.42;;;;;;;;;;4877313;29;20056;-83
2023/08/25 03:08:15;;;;;;;56.35;19.98;;;;;;;;;;4897078;29;20049;-83
2023/08/25 03:10:43;;;;;;;30.52;17.90;;;;;;;;;;4878645;29;20057;-83
2023/08/25 03:13:13;;;;;;;32.67;15.32;;;;;;;;;;4881212;29;20055;-83
2023/08/25 03:15:43;;;;;;;18.50;13.93;;;;;;;;;;4869632;29;20052;-83
2023/08/25 03:18:11;;;;;;;21.88;13.98;;;;;;;;;;4877585;29;20424;-82
2023/08/25 03:20:42;;;;;;;23.70;15.02;;;;;;;;;;4880783;29;20056;-82
2023/08/25 03:23:11;;;;;;;27.70;18.10;;;;;;;;;;4863425;29;20413;-82
2023/08/25 03:25:41;;;;;;;26.00;17.27;;;;;;;;;;4901501;29;20082;-82
2023/08/25 03:28:08;;;;;;;25.60;17.92;;;;;;;;;;4895851;29;20052;-82
2023/08/25 03:30:37;;;;;;;23.10;17.40;;;;;;;;;;4883040;29;20497;-82
2023/08/25 03:33:04;;;;;;;20.65;18.08;;;;;;;;;;4881614;29;20053;-83
2023/08/25 03:35:35;;;;;;;30.65;18.23;;;;;;;;;;4867796;29;20060;-81
2023/08/25 03:38:06;;;;;;;24.60;17.58;;;;;;;;;;4877124;29;20064;-82
2023/08/25 03:40:37;;;;;;;21.10;16.35;;;;;;;;;;4878486;29;20063;-82
2023/08/25 03:43:06;;;;;;;27.30;16.58;;;;;;;;;;4883337;29;20055;-82
2023/08/25 03:45:37;;;;;;;33.25;19.10;;;;;;;;;;4899527;29;20391;-82
2023/08/25 03:48:07;;;;;;;29.85;18.13;;;;;;;;;;4876281;29;20056;-81
2023/08/25 03:50:34;;;;;;;22.08;15.13;;;;;;;;;;4882654;29;20056;-81
2023/08/25 03:53:02;;;;;;;68.22;25.55;;;;;;;;;;4888886;29;20446;-82
2023/08/25 03:55:33;;;;;;;23.63;13.63;;;;;;;;;;4870253;29;20061;-82
2023/08/25 03:58:05;;;;;;;25.42;14.63;;;;;;;;;;4868509;29;20432;-82
2023/08/25 04:00:33;;;;;;;45.05;18.05;;;;;;;;;;4882361;29;20055;-82
2023/08/25 04:03:06;;;;;;;38.30;20.92;;;;;;;;;;4882590;29;20049;-82
2023/08/25 04:05:38;;;;;;;52.95;18.27;;;;;;;;;;4880503;29;20057;-82
2023/08/25 04:08:08;;;;;;;38.97;14.88;;;;;;;;;;4879266;29;20060;-83
2023/08/25 04:10:41;;;;;;;53.60;18.45;;;;;;;;;;4882371;29;20060;-83
2023/08/25 04:13:10;;;;;;;29.73;13.83;;;;;;;;;;4869780;29;20528;-82
2023/08/25 04:15:40;;;;;;;37.00;14.90;;;;;;;;;;4884201;29;20313;-82
2023/08/25 04:18:12;;;;;;;27.10;14.95;;;;;;;;;;4887573;29;20041;-82
2023/08/25 04:20:45;;;;;;;24.17;14.98;;;;;;;;;;4879766;29;20063;-81
2023/08/25 04:23:12;;;;;;;21.65;13.93;;;;;;;;;;4884882;29;20417;-82
2023/08/25 04:25:46;;;;;;;23.52;13.40;;;;;;;;;;4883158;29;20048;-82
2023/08/25 04:28:18;;;;;;;32.65;13.38;;;;;;;;;;4876957;29;20052;-82
2023/08/25 04:30:48;;;;;;;28.05;11.82;;;;;;;;;;4882323;29;20049;-82
2023/08/25 04:33:35;;;;;;;35.97;14.32;;;;;;;;;;4869613;29;20060;-82
2023/08/25 04:36:05;;;;;;;24.70;14.32;;;;;;;;;;4860505;29;20053;-82
2023/08/25 04:38:35;;;;;;;28.88;13.68;;;;;;;;;;4882406;29;20071;-83
2023/08/25 04:41:04;;;;;;;20.85;14.18;;;;;;;;;;4874339;29;20055;-83
2023/08/25 04:43:33;;;;;;;33.58;14.68;;;;;;;;;;4888116;29;20063;-82
2023/08/25 04:46:07;;;;;;;22.10;12.87;;;;;;;;;;4898097;29;20075;-83
2023/08/25 04:48:37;;;;;;;14.10;11.73;;;;;;;;;;4888827;29;20061;-83
2023/08/25 04:51:06;;;;;;;18.85;14.15;;;;;;;;;;4888241;29;20052;-83
2023/08/25 04:53:39;;;;;;;13.05;11.82;;;;;;;;;;4885337;29;20056;-83
2023/08/25 04:56:23;;;;;;;14.65;13.25;;;;;;;;;;4868076;29;20063;-83
2023/08/25 04:58:58;;;;;;;13.55;12.27;;;;;;;;;;4877111;29;20063;-83
2023/08/25 05:01:30;;;;;;;14.98;13.35;;;;;;;;;;4878590;29;20060;-83
2023/08/25 05:04:11;;;;;;;14.13;12.63;;;;;;;;;;4868304;29;20053;-84
2023/08/25 05:06:49;;;;;;;12.93;11.27;;;;;;;;;;4868934;29;20044;-83
2023/08/25 05:09:20;;;;;;;15.90;14.30;;;;;;;;;;4892509;29;20041;-84
2023/08/25 05:12:07;;;;;;;;;;;;;;;;;;;;;
2023/08/25 05:14:49;;;;;;;14.52;12.75;;;;;;;;;;4866654;29;20049;-84
2023/08/25 05:17:29;;;;;;;13.57;12.23;;;;;;;;;;4881085;29;20060;-84
2023/08/25 05:22:50;;;;;;;13.65;12.27;;;;;;;;;;4861698;29;20061;-83
2023/08/25 05:25:25;;;;;;;13.98;12.63;;;;;;;;;;4860082;29;20064;-83
2023/08/25 05:27:55;;;;;;;11.75;10.65;;;;;;;;;;4859699;29;20053;-83
2023/08/25 05:30:50;;;;;;;11.57;10.48;;;;;;;;;;4857768;29;20068;-83
2023/08/25 05:33:30;;;;;;;10.60;9.55;;;;;;;;;;4846809;29;20056;-84
2023/08/25 05:52:08;;;;;;;19.75;12.27;;;;;;;;;;4868759;29;20025;-83
2023/08/25 05:54:36;;;;;;;11.48;10.13;;;;;;;;;;4870593;29;20069;-82
2023/08/25 05:57:04;;;;;;;16.00;9.40;;;;;;;;;;4853438;29;20052;-84
2023/08/25 05:59:32;;;;;;;7.82;6.55;;;;;;;;;;4865811;29;20060;-84
2023/08/25 06:01:59;;;;;;;11.02;10.02;;;;;;;;;;4848121;29;20068;-84
2023/08/25 06:04:27;;;;;;;8.73;7.90;;;;;;;;;;4863989;29;20061;-83
2023/08/25 06:06:54;;;;;;;7.90;7.20;;;;;;;;;;4848776;29;20132;-83
2023/08/25 06:09:23;;;;;;;12.10;6.40;;;;;;;;;;4862336;29;20060;-84
2023/08/25 06:11:50;;;;;;;8.85;6.75;;;;;;;;;;4843916;29;20506;-83
2023/08/25 06:14:18;;;;;;;18.75;8.18;;;;;;;;;;4862870;29;20050;-83
2023/08/25 06:16:48;;;;;;;8.40;6.63;;;;;;;;;;4865452;29;20040;-83
2023/08/25 06:19:15;;;;;;;8.18;7.38;;;;;;;;;;4846458;29;20057;-82
2023/08/25 06:21:44;;;;;;;14.38;7.60;;;;;;;;;;4845844;29;20050;-83
2023/08/25 06:24:11;;;;;;;8.95;6.75;;;;;;;;;;4863825;29;20406;-82
2023/08/25 06:26:42;;;;;;;11.65;6.30;;;;;;;;;;4863851;29;20569;-82
2023/08/25 06:29:11;;;;;;;6.82;6.05;;;;;;;;;;4859418;29;20064;-83
2023/08/25 06:31:41;;;;;;;13.43;5.50;;;;;;;;;;4860827;29;20410;-83
2023/08/25 06:34:09;;;;;;;9.27;5.63;;;;;;;;;;4859471;29;20486;-84
2023/08/25 06:36:36;;;;;;;11.57;7.07;;;;;;;;;;4858608;29;20053;-83
2023/08/25 06:39:05;;;;;;;11.50;5.57;;;;;;;;;;4843681;29;20042;-84
2023/08/25 06:41:32;;;;;;;6.78;5.63;;;;;;;;;;4864348;29;20060;-83
2023/08/25 06:44:12;;;;;;;8.65;7.47;;;;;;;;;;4856878;29;20082;-84
2023/08/25 06:46:39;;;;;;;6.55;5.95;;;;;;;;;;4862370;29;20045;-84
2023/08/25 06:49:11;;;;;;;7.88;6.50;;;;;;;;;;4862510;29;20049;-84
2023/08/25 06:51:38;;;;;;;8.02;6.90;;;;;;;;;;4863920;29;20057;-84
2023/08/25 06:54:08;;;;;;;10.18;5.82;;;;;;;;;;4858417;29;20061;-83
2023/08/25 06:56:37;;;;;;;9.30;6.15;;;;;;;;;;4853856;29;20042;-83
2023/08/25 06:59:07;;;;;;;7.85;7.15;;;;;;;;;;4845338;29;20053;-83
2023/08/25 07:01:38;;;;;;;8.45;5.40;;;;;;;;;;4845345;29;20061;-84
2023/08/25 07:04:07;;;;;;;8.18;6.10;;;;;;;;;;4854199;29;20060;-84
2023/08/25 07:06:37;;;;;;;6.65;5.97;;;;;;;;;;4850766;29;20053;-83
2023/08/25 07:09:05;;;;;;;8.88;5.45;;;;;;;;;;4859266;29;20057;-83
2023/08/25 07:11:32;;;;;;;11.18;6.63;;;;;;;;;;4863785;29;20056;-84
2023/08/25 07:14:01;;;;;;;8.65;5.45;;;;;;;;;;4859588;29;20410;-83
2023/08/25 07:16:34;;;;;;;11.13;5.47;;;;;;;;;;4860067;29;20057;-84
2023/08/25 07:19:02;;;;;;;6.85;5.63;;;;;;;;;;4858445;29;20052;-84
2023/08/25 07:21:30;;;;;;;7.60;5.47;;;;;;;;;;4856575;29;20061;-83
2023/08/25 07:23:57;;;;;;;5.93;4.72;;;;;;;;;;4840139;29;20447;-83
2023/08/25 07:26:26;;;;;;;7.38;4.75;;;;;;;;;;4847648;29;20088;-83
2023/08/25 07:28:54;;;;;;;7.93;5.65;;;;;;;;;;4865186;29;20410;-83
2023/08/25 07:31:26;;;;;;;12.45;4.68;;;;;;;;;;4857140;29;20054;-83
2023/08/25 07:33:56;;;;;;;9.02;5.70;;;;;;;;;;4821895;29;20053;-84
2023/08/25 07:36:27;;;;;;;8.27;5.18;;;;;;;;;;4857434;29;20061;-85
2023/08/25 07:38:58;;;;;;;8.98;5.50;;;;;;;;;;4853489;29;20045;-84
2023/08/25 07:41:26;;;;;;;6.00;4.70;;;;;;;;;;4842030;29;20064;-84
2023/08/25 07:43:54;;;;;;;6.95;5.90;;;;;;;;;;4838600;29;20050;-84
2023/08/25 07:46:22;;;;;;;8.80;5.68;;;;;;;;;;4852161;29;20509;-84
2023/08/25 07:48:51;;;;;;;8.38;7.57;;;;;;;;;;4847545;29;20038;-84
2023/08/25 07:51:22;;;;;;;9.82;6.30;;;;;;;;;;4863680;29;20525;-84
2023/08/25 07:53:56;;;;;;;;;;;;;;;;;;4857552;29;20045;-83
2023/08/25 07:56:24;;;;;;;11.80;6.65;;;;;;;;;;4859049;29;20384;-84
2023/08/25 07:58:51;;;;;;;8.00;6.40;;;;;;;;;;4855975;29;20045;-84
2023/08/25 08:01:23;;;;;;;9.95;7.18;;;;;;;;;;4859205;29;20569;-84
2023/08/25 08:04:01;;;;;;;12.43;7.22;;;;;;;;;;4865799;29;20056;-82
2023/08/25 08:06:33;;;;;;;7.35;4.80;;;;;;;;;;4858710;29;20060;-83
2023/08/25 08:09:06;;;;;;;9.73;4.50;;;;;;;;;;4854991;29;20038;-85
2023/08/25 08:11:41;;;;;;;7.15;5.13;;;;;;;;;;4861726;29;20064;-83
2023/08/25 08:14:12;;;;;;;5.63;4.82;;;;;;;;;;4854857;29;20053;-84
2023/08/25 08:16:39;;;;;;;5.18;4.28;;;;;;;;;;4860084;29;20053;-84
2023/08/25 08:19:10;;;;;;;6.47;4.55;;;;;;;;;;4846595;29;20087;-85
2023/08/25 08:21:46;;;;;;;8.88;4.63;;;;;;;;;;4857414;29;20431;-84
2023/08/25 08:24:14;;;;;;;6.78;4.55;;;;;;;;;;4853306;29;20064;-84
2023/08/25 08:26:43;;;;;;;5.50;4.40;;;;;;;;;;4853224;29;20045;-83
2023/08/25 08:29:13;;;;;;;6.80;4.28;;;;;;;;;;4851999;29;20052;-83
2023/08/25 08:31:45;;;;;;;5.70;3.70;;;;;;;;;;4853910;29;20060;-83
2023/08/25 08:34:18;;;;;;;14.63;4.57;;;;;;;;;;4838163;29;20120;-84
2023/08/25 08:36:49;;;;;;;5.78;3.97;;;;;;;;;;4850471;29;20072;-83
2023/08/25 08:39:20;;;;;;;6.80;4.90;;;;;;;;;;4854182;29;20053;-84
2023/08/25 08:41:49;;;;;;;7.00;4.65;;;;;;;;;;4848360;29;20054;-83
2023/08/25 08:44:17;;;;;;;6.43;4.70;;;;;;;;;;4863215;29;20056;-83
2023/08/25 08:46:46;;;;;;;5.57;4.55;;;;;;;;;;4854304;29;20057;-84
2023/08/25 08:49:16;;;;;;;4.82;4.38;;;;;;;;;;4857212;29;20089;-83
2023/08/25 08:51:52;;;;;;;4.63;3.65;;;;;;;;;;4883758;23;20560;-83
2023/08/25 08:58:27;;;;;;;;;;;;;;;;;;;;;
2023/08/25 09:01:36;;;;;;;7.72;4.47;;;;;;;;;;4830145;29;20556;-83
2023/08/25 09:04:42;;;;;;;4.93;4.43;;;;;;;;;;4840621;29;20087;-83
2023/08/25 11:47:00;;;;;;;6.47;2.95;;;;;;;;;;3277197;23;20479;-82
2023/08/25 11:49:29;;;;;;;3.38;2.50;;;;;;;;;;4933753;29;20047;-82
2023/08/25 11:51:56;;;;;;;3.25;2.95;;;;;;;;;;4915267;29;20075;-82
2023/08/25 11:54:24;;;;;;;3.83;2.58;;;;;;;;;;4901615;29;20048;-82
2023/08/25 11:56:52;;;;;;;2.60;2.40;;;;;;;;;;4917115;29;20417;-82
2023/08/25 11:59:20;;;;;;;3.78;2.60;;;;;;;;;;4894821;29;20531;-82
2023/08/25 12:01:49;;;;;;;3.58;2.47;;;;;;;;;;4913370;29;20044;-83
2023/08/25 12:04:23;;;;;;;3.55;2.40;;;;;;;;;;4881443;29;20074;-83
2023/08/25 12:06:55;;;;;;;2.95;2.65;;;;;;;;;;4892414;29;20529;-83
2023/08/25 12:09:23;;;;;;;2.90;2.53;;;;;;;;;;4911078;29;20048;-83
2023/08/25 12:11:51;;;;;;;2.33;2.13;;;;;;;;;;4906174;29;20263;-84
2023/08/25 12:14:28;;;;;;;3.50;2.45;;;;;;;;;;4873249;29;20055;-84
2023/08/25 12:16:56;;;;;;;3.20;2.88;;;;;;;;;;4892862;29;20059;-84
2023/08/25 12:19:26;;;;;;;6.82;2.80;;;;;;;;;;4908828;29;20539;-84
2023/08/25 12:21:54;;;;;;;5.93;2.53;;;;;;;;;;4882474;29;20056;-84
2023/08/25 12:24:21;;;;;;;2.92;2.58;;;;;;;;;;4881584;29;20048;-84
2023/08/25 12:26:49;;;;;;;3.22;2.92;;;;;;;;;;4913158;29;20062;-83
2023/08/25 12:29:16;;;;;;;2.50;2.30;;;;;;;;;;4895263;29;20048;-83
2023/08/25 12:31:43;;;;;;;9.57;2.90;;;;;;;;;;4897372;29;20420;-83
2023/08/25 12:34:11;;;;;;;4.32;3.17;;;;;;;;;;4879653;29;20063;-82
2023/08/25 12:36:40;;;;;;;3.83;3.00;;;;;;;;;;4889321;29;20052;-82
2023/08/25 12:39:08;;;;;;;4.35;2.80;;;;;;;;;;4894962;29;20048;-83
2023/08/25 12:41:35;;;;;;;2.65;2.28;;;;;;;;;;4908109;29;20493;-82
2023/08/25 12:44:04;;;;;;;4.00;3.00;;;;;;;;;;4911411;29;20052;-83
2023/08/25 12:46:31;;;;;;;3.35;2.50;;;;;;;;;;4896622;29;20063;-83
2023/08/25 12:48:58;;;;;;;5.03;3.03;;;;;;;;;;4896345;29;20429;-82
2023/08/25 12:51:53;;;;;;;2.63;2.30;;;;;;;;;;4912768;29;20048;-83
2023/08/25 12:54:20;;;;;;;3.28;3.00;;;;;;;;;;4905094;29;20060;-83
2023/08/25 12:56:50;;;;;;;6.32;3.75;;;;;;;;;;4898715;29;20040;-83
2023/08/25 12:59:17;;;;;;;5.93;3.25;;;;;;;;;;4881860;29;20496;-82
2023/08/25 13:01:47;;;;;;;2.72;2.20;;;;;;;;;;4881725;29;20524;-82
2023/08/25 13:04:14;;;;;;;3.38;3.08;;;;;;;;;;4887783;29;20055;-82
2023/08/25 13:06:41;;;;;;;4.18;3.10;;;;;;;;;;4892728;29;20523;-82
2023/08/25 13:09:13;;;;;;;3.35;2.88;;;;;;;;;;4896069;29;20063;-83
2023/08/25 13:11:43;;;;;;;4.50;3.80;;;;;;;;;;4876140;29;20052;-82
2023/08/25 13:14:13;;;;;;;3.72;2.92;;;;;;;;;;4913962;29;20043;-83
2023/08/25 13:16:40;;;;;;;4.40;2.58;;;;;;;;;;4914497;29;20629;-83
2023/08/25 13:19:08;;;;;;;3.55;3.00;;;;;;;;;;4880531;29;20071;-82
2023/08/25 13:21:38;;;;;;;3.20;2.85;;;;;;;;;;4909496;29;20501;-82
2023/08/25 13:24:06;;;;;;;4.45;3.08;;;;;;;;;;4904575;29;20059;-83
2023/08/25 13:26:34;;;;;;;3.80;2.67;;;;;;;;;;4884983;29;20060;-83
2023/08/25 13:29:02;;;;;;;5.43;3.17;;;;;;;;;;4901456;29;20048;-83
2023/08/25 13:31:30;;;;;;;4.95;3.03;;;;;;;;;;4899875;29;20063;-83
2023/08/25 13:33:57;;;;;;;3.35;3.05;;;;;;;;;;4912083;29;20048;-83
2023/08/25 13:36:27;;;;;;;3.13;2.83;;;;;;;;;;4891339;29;20051;-83
2023/08/25 13:38:56;;;;;;;3.85;2.72;;;;;;;;;;4896079;29;20059;-83
2023/08/25 13:41:26;;;;;;;3.55;2.83;;;;;;;;;;4909587;29;20063;-83
2023/08/25 13:43:54;;;;;;;4.95;3.28;;;;;;;;;;4895533;29;20051;-83
2023/08/25 13:46:27;;;;;;;3.63;2.85;;;;;;;;;;4894739;29;20063;-83
2023/08/25 13:48:58;;;;;;;3.35;3.05;;;;;;;;;;4912989;29;20055;-82
2023/08/25 13:51:28;;;;;;;3.58;2.63;;;;;;;;;;4910727;29;20048;-83
2023/08/25 13:53:55;;;;;;;4.40;2.85;;;;;;;;;;4911139;29;20048;-83
2023/08/25 13:56:25;;;;;;;5.10;3.67;;;;;;;;;;4909680;29;20052;-83
2023/08/25 13:58:52;;;;;;;5.15;3.42;;;;;;;;;;4907714;29;20045;-83
2023/08/25 14:01:23;;;;;;;6.55;3.47;;;;;;;;;;4893054;29;20059;-83
2023/08/25 14:03:51;;;;;;;3.58;2.92;;;;;;;;;;4910576;29;20052;-83
2023/08/25 14:06:20;;;;;;;3.97;2.97;;;;;;;;;;4908503;29;20091;-83
2023/08/25 14:08:50;;;;;;;4.72;2.95;;;;;;;;;;4907563;29;20048;-83
2023/08/25 14:11:19;;;;;;;3.55;3.25;;;;;;;;;;4914349;29;20072;-83
2023/08/25 14:13:49;;;;;;;4.90;3.10;;;;;;;;;;4914127;29;20078;-83
2023/08/25 14:16:16;;;;;;;6.50;3.58;;;;;;;;;;4916735;29;20055;-83
2023/08/25 14:18:47;;;;;;;6.45;3.50;;;;;;;;;;4898843;29;20404;-83
2023/08/25 14:21:17;;;;;;;4.38;3.08;;;;;;;;;;4915618;29;20056;-82
2023/08/25 14:23:47;;;;;;;9.02;3.58;;;;;;;;;;4909977;29;20059;-83
2023/08/25 14:29:52;;;;;;;4.25;3.40;;;;;;;;;;4898723;29;20532;-83
2023/08/25 14:40:10;;;;;;;;;;;;;;;;;;;;;
2023/08/25 14:43:14;;;;;;;4.18;3.35;;;;;;;;;;4784087;29;20054;-83
2023/08/25 14:47:07;;;;;;;4.50;3.35;;;;;;;;;;4791297;29;20188;-83
2023/08/25 14:49:57;;;;;;;5.22;3.40;;;;;;;;;;4821305;29;20494;-83
2023/08/25 14:55:25;;;;;;;4.00;3.60;;;;;;;;;;4907597;29;20056;-83
2023/08/25 14:57:52;;;;;;;3.80;3.45;;;;;;;;;;4902764;29;20151;-83
2023/08/25 15:00:20;;;;;;;4.43;3.22;;;;;;;;;;4877668;29;20056;-83
2023/08/25 15:02:47;;;;;;;5.47;3.42;;;;;;;;;;4915849;29;20051;-83
2023/08/25 15:05:14;;;;;;;5.82;3.55;;;;;;;;;;4883915;29;20064;-83
2023/08/25 15:07:43;;;;;;;4.35;3.22;;;;;;;;;;4882974;29;20059;-83
2023/08/25 15:10:11;;;;;;;3.42;3.13;;;;;;;;;;4895166;29;20067;-82
2023/08/25 15:12:38;;;;;;;3.42;3.05;;;;;;;;;;4894090;29;20056;-83
2023/08/25 15:15:07;;;;;;;3.97;3.63;;;;;;;;;;4892259;29;20055;-83
2023/08/25 15:17:35;;;;;;;3.85;3.45;;;;;;;;;;4902755;29;20067;-83
2023/08/25 15:20:02;;;;;;;5.40;2.88;;;;;;;;;;4888816;29;20051;-82
2023/08/25 15:22:30;;;;;;;3.97;3.50;;;;;;;;;;4906475;29;20052;-82
2023/08/25 15:24:59;;;;;;;5.30;3.97;;;;;;;;;;4907027;29;20394;-82
2023/08/25 15:27:26;;;;;;;4.43;3.28;;;;;;;;;;4893818;29;20504;-82
2023/08/25 15:29:54;;;;;;;3.20;2.90;;;;;;;;;;4891015;29;20052;-82
2023/08/25 15:32:24;;;;;;;3.88;3.55;;;;;;;;;;4906046;29;20536;-82
2023/08/25 15:34:51;;;;;;;3.65;3.35;;;;;;;;;;4875442;29;20525;-82
2023/08/25 15:37:19;;;;;;;6.78;3.45;;;;;;;;;;4906077;29;20048;-82
2023/08/25 15:39:49;;;;;;;3.38;3.08;;;;;;;;;;4891692;29;20511;-82
2023/08/25 15:42:17;;;;;;;5.63;3.55;;;;;;;;;;4907336;29;21349;-82
2023/08/25 15:44:45;;;;;;;7.68;3.22;;;;;;;;;;4906390;29;20060;-82
2023/08/25 15:47:12;;;;;;;4.20;3.80;;;;;;;;;;4892536;29;20063;-82
2023/08/25 15:49:41;;;;;;;4.68;3.80;;;;;;;;;;4888834;29;20416;-82
2023/08/25 15:52:11;;;;;;;4.63;3.55;;;;;;;;;;4892351;29;20142;-82
2023/08/25 15:54:43;;;;;;;5.53;3.83;;;;;;;;;;4905522;29;20060;-82
2023/08/25 15:57:13;;;;;;;3.45;2.75;;;;;;;;;;4892327;29;20426;-82
2023/08/25 15:59:41;;;;;;;3.65;3.35;;;;;;;;;;4908020;29;20056;-82
2023/08/25 16:02:11;;;;;;;3.85;3.28;;;;;;;;;;4889243;29;20044;-82
2023/08/25 16:04:41;;;;;;;3.30;3.00;;;;;;;;;;4903859;29;20071;-82
2023/08/25 16:07:11;;;;;;;4.90;3.30;;;;;;;;;;4875571;29;20063;-82
2023/08/25 16:09:38;;;;;;;5.55;3.38;;;;;;;;;;4893150;29;20059;-82
2023/08/25 16:12:06;;;;;;;3.50;3.20;;;;;;;;;;4889623;29;20056;-82
2023/08/25 16:14:36;;;;;;;4.88;3.90;;;;;;;;;;4901026;29;20437;-83
2023/08/25 16:17:05;;;;;;;3.00;2.65;;;;;;;;;;4896069;29;20509;-83
2023/08/25 16:19:32;;;;;;;6.32;3.47;;;;;;;;;;4909691;29;20048;-83
2023/08/25 16:21:59;;;;;;;4.65;3.65;;;;;;;;;;4881549;29;20409;-83
2023/08/25 16:24:32;;;;;;;8.05;3.85;;;;;;;;;;4892310;29;20047;-83
2023/08/25 16:26:59;;;;;;;5.55;4.32;;;;;;;;;;4906970;29;20051;-83
2023/08/25 16:29:27;;;;;;;5.25;4.07;;;;;;;;;;4911087;29;20051;-83
2023/08/25 16:31:59;;;;;;;4.47;4.03;;;;;;;;;;4917315;29;20055;-83
2023/08/25 16:34:27;;;;;;;4.70;2.95;;;;;;;;;;4885195;29;20060;-83
2023/08/25 16:36:59;;;;;;;5.97;3.72;;;;;;;;;;4891314;29;20056;-83
2023/08/25 16:39:28;;;;;;;6.47;3.55;;;;;;;;;;4879797;29;20063;-83
2023/08/25 16:41:59;;;;;;;6.45;3.85;;;;;;;;;;4896321;29;20056;-82
2023/08/25 16:44:31;;;;;;;4.05;3.00;;;;;;;;;;4882085;29;20044;-81
2023/08/25 16:46:58;;;;;;;5.20;3.20;;;;;;;;;;4881572;29;20056;-82
2023/08/25 16:49:25;;;;;;;3.95;3.47;;;;;;;;;;4912233;29;20048;-84
2023/08/25 16:51:56;;;;;;;5.90;4.95;;;;;;;;;;4891431;29;20056;-83
2023/08/25 16:54:24;;;;;;;8.10;4.15;;;;;;;;;;4910616;29;20048;-83
2023/08/25 16:56:51;;;;;;;5.20;3.35;;;;;;;;;;4894891;29;20056;-83
2023/08/25 16:59:21;;;;;;;4.90;3.88;;;;;;;;;;4892188;29;20063;-83
2023/08/25 17:01:51;;;;;;;6.80;4.15;;;;;;;;;;4894388;29;20086;-81
2023/08/25 17:04:20;;;;;;;6.03;3.55;;;;;;;;;;4894594;29;20064;-81
2023/08/25 17:06:49;;;;;;;3.20;2.80;;;;;;;;;;4909731;29;20058;-81
2023/08/25 17:09:19;;;;;;;6.68;3.97;;;;;;;;;;4896716;29;20501;-81
2023/08/25 17:11:46;;;;;;;4.95;3.72;;;;;;;;;;4890741;29;20055;-81
2023/08/25 17:14:15;;;;;;;8.25;4.45;;;;;;;;;;4893381;29;20063;-81
2023/08/25 17:16:44;;;;;;;5.85;3.65;;;;;;;;;;4880713;29;20524;-81
2023/08/25 17:19:13;;;;;;;6.85;3.90;;;;;;;;;;4911210;29;20048;-84
2023/08/25 17:21:43;;;;;;;4.78;4.20;;;;;;;;;;4881146;29;20063;-84
2023/08/25 17:24:12;;;;;;;4.13;2.92;;;;;;;;;;4893146;29;20055;-83
2023/08/25 17:26:44;;;;;;;4.80;3.08;;;;;;;;;;4897905;29;20079;-83
2023/08/25 17:29:13;;;;;;;5.05;3.67;;;;;;;;;;4895658;29;20528;-83
2023/08/25 17:31:42;;;;;;;4.88;3.63;;;;;;;;;;4896439;29;20052;-81
2023/08/25 17:34:14;;;;;;;5.15;4.68;;;;;;;;;;4910897;29;20055;-81
2023/08/25 17:36:43;;;;;;;9.20;4.30;;;;;;;;;;4879155;29;20412;-81
2023/08/25 17:39:13;;;;;;;5.20;4.30;;;;;;;;;;4890579;29;20424;-81
2023/08/25 17:41:47;;;;;;;9.70;3.83;;;;;;;;;;4895281;29;20067;-81
2023/08/25 17:44:16;;;;;;;5.55;3.88;;;;;;;;;;4895131;29;20059;-81
2023/08/25 17:46:46;;;;;;;4.70;3.92;;;;;;;;;;4889889;29;20060;-81
2023/08/25 17:49:15;;;;;;;5.35;3.72;;;;;;;;;;4910539;29;21588;-81
2023/08/25 17:51:44;;;;;;;9.35;4.10;;;;;;;;;;4889287;29;20052;-81
2023/08/25 17:54:18;;;;;;;4.07;3.38;;;;;;;;;;4899515;29;20868;-81
2023/08/25 17:56:52;;;;;;;6.07;3.97;;;;;;;;;;4892722;29;20066;-81
2023/08/25 17:59:22;;;;;;;4.97;3.72;;;;;;;;;;4892255;29;20059;-81
2023/08/25 18:01:50;;;;;;;7.25;5.15;;;;;;;;;;4927857;23;20056;-82
2023/08/25 18:04:18;;;;;;;8.48;4.10;;;;;;;;;;4902235;29;20052;-82
2023/08/25 18:06:45;;;;;;;8.60;4.40;;;;;;;;;;4898006;29;20075;-83
2023/08/25 18:09:17;;;;;;;6.60;4.18;;;;;;;;;;4905786;29;20141;-84
2023/08/25 18:11:47;;;;;;;4.40;3.33;;;;;;;;;;4894793;29;20059;-83